createdAt,value
2023-03-24T00:02:10.630Z,5.80
2023-03-24T00:05:41.580Z,5.30
2023-03-24T00:09:11.518Z,5.90
2023-03-24T00:12:42.258Z,6.80
2023-03-24T00:16:12.553Z,7.30
2023-03-24T00:19:43.345Z,5.40
2023-03-24T00:23:17.596Z,4.80
2023-03-24T00:27:35.859Z,5.00
2023-03-24T00:34:20.182Z,4.20
2023-03-24T00:37:52.427Z,4.10
2023-03-24T00:41:25.445Z,3.40
2023-03-24T00:44:56.233Z,4.30
2023-03-24T00:48:26.481Z,4.80
2023-03-24T00:52:44.316Z,4.10
2023-03-24T00:57:12.694Z,5.30
2023-03-24T01:01:41.041Z,5.20
2023-03-24T01:05:30.800Z,4.80
2023-03-24T01:09:01.763Z,9.70
2023-03-24T01:12:31.416Z,11.30
2023-03-24T01:16:09.653Z,8.60
2023-03-24T01:20:12.086Z,6.90
2023-03-24T01:23:49.803Z,5.20
2023-03-24T01:27:20.109Z,5.00
2023-03-24T01:30:43.383Z,4.30
2023-03-24T01:34:18.196Z,3.20
2023-03-24T01:37:49.846Z,3.10
2023-03-24T01:41:23.953Z,3.60
2023-03-24T01:45:04.422Z,3.10
2023-03-24T01:53:55.503Z,3.40
2023-03-24T01:57:35.016Z,3.50
2023-03-24T02:01:12.445Z,3.50
2023-03-24T02:04:42.482Z,3.50
2023-03-24T02:12:03.506Z,3.80
2023-03-24T02:16:44.813Z,3.10
2023-03-24T02:24:30.581Z,3.60
2023-03-24T02:28:04.652Z,3.30
2023-03-24T02:31:58.353Z,3.60
2023-03-24T02:35:48.074Z,3.80
2023-03-24T02:39:21.097Z,4.00
2023-03-24T02:43:34.836Z,3.70
2023-03-24T02:47:18.396Z,4.10
2023-03-24T02:52:05.179Z,5.40
2023-03-24T02:59:52.728Z,5.80
2023-03-24T03:03:40.912Z,5.60
2023-03-24T03:08:04.748Z,6.00
2023-03-24T03:11:46.278Z,4.70
2023-03-24T03:15:22.297Z,4.40
2023-03-24T03:18:58.928Z,4.30
2023-03-24T03:22:32.355Z,5.30
2023-03-24T03:26:06.732Z,3.60
2023-03-24T03:29:43.333Z,4.00
2023-03-24T03:33:13.509Z,3.90
2023-03-24T03:36:52.934Z,3.40
2023-03-24T03:40:23.006Z,3.50
2023-03-24T03:43:52.475Z,3.90
2023-03-24T03:47:22.327Z,3.40
2023-03-24T03:51:06.267Z,3.60
2023-03-24T03:54:28.476Z,3.30
2023-03-24T03:58:00.984Z,3.90
2023-03-24T04:01:33.499Z,3.10
2023-03-24T04:06:00.345Z,3.70
2023-03-24T04:10:00.521Z,3.10
2023-03-24T04:13:42.414Z,3.30
2023-03-24T04:18:20.127Z,2.70
2023-03-24T04:22:18.453Z,3.20
2023-03-24T04:25:51.542Z,3.40
2023-03-24T04:29:27.397Z,3.50
2023-03-24T04:33:13.243Z,3.40
2023-03-24T04:37:36.097Z,4.00
2023-03-24T04:41:44.315Z,3.90
2023-03-24T04:45:14.147Z,3.60
2023-03-24T04:48:44.224Z,3.90
2023-03-24T04:52:16.861Z,4.10
2023-03-24T04:55:54.275Z,3.10
2023-03-24T04:59:24.095Z,3.30
2023-03-24T05:03:41.396Z,3.30
2023-03-24T05:08:09.902Z,4.30
2023-03-24T05:11:53.418Z,3.20
2023-03-24T05:15:32.167Z,3.90
2023-03-24T05:19:02.995Z,3.70
2023-03-24T05:22:35.356Z,3.20
2023-03-24T05:26:06.199Z,3.50
2023-03-24T05:30:12.176Z,3.80
2023-03-24T05:34:33.331Z,2.80
2023-03-24T05:41:19.469Z,3.00
2023-03-24T05:44:34.898Z,2.60
2023-03-24T05:48:07.119Z,3.20
2023-03-24T05:51:36.246Z,3.20
2023-03-24T05:55:07.081Z,3.20
2023-03-24T05:58:37.116Z,2.80
2023-03-24T06:02:07.029Z,3.30
2023-03-24T06:04:34.692Z,3.20
2023-03-24T06:07:02.529Z,3.20
2023-03-24T06:09:35.307Z,3.20
2023-03-24T06:12:04.425Z,3.00
2023-03-24T06:14:33.362Z,3.60
2023-03-24T06:17:00.953Z,3.70
2023-03-24T06:19:30.340Z,3.30
2023-03-24T06:22:02.314Z,3.10
2023-03-24T06:24:30.176Z,3.00
2023-03-24T06:27:01.720Z,2.80
2023-03-24T06:29:30.676Z,2.70
2023-03-24T06:31:57.875Z,3.00
2023-03-24T06:34:25.671Z,2.80
2023-03-24T06:36:52.808Z,2.90
2023-03-24T06:39:20.519Z,3.20
2023-03-24T06:41:47.775Z,2.90
2023-03-24T06:44:15.161Z,3.40
2023-03-24T06:46:42.448Z,2.60
2023-03-24T06:49:09.662Z,2.90
2023-03-24T06:51:37.026Z,2.90
2023-03-24T06:54:04.458Z,3.50
2023-03-24T06:56:31.861Z,3.50
2023-03-24T06:58:59.107Z,3.90
2023-03-24T07:01:26.786Z,3.20
2023-03-24T07:03:54.091Z,3.20
2023-03-24T07:06:22.441Z,3.60
2023-03-24T07:08:50.791Z,3.90
2023-03-24T07:11:18.171Z,3.80
2023-03-24T07:13:45.497Z,3.30
2023-03-24T07:16:12.765Z,3.70
2023-03-24T07:18:40.019Z,3.60
2023-03-24T07:21:08.046Z,2.50
2023-03-24T07:23:35.283Z,3.20
2023-03-24T07:26:02.586Z,3.10
2023-03-24T07:28:29.920Z,3.00
2023-03-24T07:30:57.423Z,3.60
2023-03-24T07:33:26.040Z,2.90
2023-03-24T07:35:57.377Z,3.00
2023-03-24T07:38:26.012Z,3.40
2023-03-24T07:40:53.224Z,2.90
2023-03-24T07:43:22.180Z,2.60
2023-03-24T07:45:49.871Z,3.40
2023-03-24T07:48:17.400Z,2.70
2023-03-24T07:50:44.851Z,2.90
2023-03-24T07:53:14.427Z,3.30
2023-03-24T07:55:41.633Z,3.30
2023-03-24T07:58:08.996Z,3.80
2023-03-24T08:00:37.090Z,3.40
2023-03-24T08:03:04.755Z,3.40
2023-03-24T08:05:32.247Z,2.70
2023-03-24T08:07:59.750Z,2.80
2023-03-24T08:10:29.746Z,3.10
2023-03-24T08:12:58.585Z,2.70
2023-03-24T08:15:27.482Z,3.10
2023-03-24T08:17:56.169Z,2.80
2023-03-24T08:20:26.677Z,3.00
2023-03-24T08:22:54.251Z,3.00
2023-03-24T08:25:25.478Z,3.00
2023-03-24T08:27:53.856Z,3.30
2023-03-24T08:30:24.404Z,2.50
2023-03-24T08:32:58.878Z,3.00
2023-03-24T08:35:31.305Z,2.60
2023-03-24T08:38:00.573Z,2.90
2023-03-24T08:40:31.308Z,2.30
2023-03-24T08:43:02.720Z,2.90
2023-03-24T08:45:32.243Z,3.00
2023-03-24T08:48:03.681Z,2.60
2023-03-24T08:50:35.948Z,2.60
2023-03-24T08:53:04.284Z,2.30
2023-03-24T08:55:32.321Z,2.30
2023-03-24T08:58:00.705Z,2.70
2023-03-24T09:00:28.585Z,2.20
2023-03-24T09:02:56.739Z,2.30
2023-03-24T09:05:40.722Z,2.40
2023-03-24T09:08:09.278Z,2.20
2023-03-24T09:10:36.711Z,2.50
2023-03-24T09:13:04.750Z,2.10
2023-03-24T09:15:32.975Z,2.10
2023-03-24T09:18:00.477Z,2.40
2023-03-24T09:20:27.623Z,2.00
2023-03-24T09:22:55.675Z,1.80
2023-03-24T09:25:23.775Z,2.20
2023-03-24T09:27:51.118Z,2.40
2023-03-24T09:30:19.000Z,2.20
2023-03-24T09:32:46.261Z,1.80
2023-03-24T09:35:14.516Z,2.00
2023-03-24T09:37:43.374Z,2.00
2023-03-24T09:40:21.737Z,1.70
2023-03-24T09:43:06.308Z,1.90
2023-03-24T09:45:48.336Z,2.00
2023-03-24T09:48:41.979Z,1.90
2023-03-24T09:51:23.540Z,1.80
2023-03-24T09:54:27.888Z,1.80
2023-03-24T09:56:57.615Z,2.00
2023-03-24T09:59:41.747Z,2.10
2023-03-24T10:02:16.279Z,2.40
2023-03-24T10:04:49.218Z,2.00
2023-03-24T10:07:52.127Z,1.70
2023-03-24T10:10:58.599Z,2.20
2023-03-24T10:14:04.367Z,2.50
2023-03-24T10:17:13.733Z,2.10
2023-03-24T10:20:30.440Z,1.90
2023-03-24T10:23:13.922Z,2.00
2023-03-24T10:25:52.669Z,1.70
2023-03-24T10:28:28.957Z,2.30
2023-03-24T10:31:02.451Z,2.10
2023-03-24T10:33:30.830Z,1.80
2023-03-24T10:36:14.337Z,1.80
2023-03-24T10:38:42.020Z,1.70
2023-03-24T10:41:19.642Z,1.90
2023-03-24T10:43:50.067Z,2.40
2023-03-24T10:46:24.923Z,1.90
2023-03-24T10:49:13.884Z,2.10
2023-03-24T10:51:56.261Z,1.90
2023-03-24T10:54:28.442Z,2.10
2023-03-24T10:56:59.877Z,2.80
2023-03-24T10:59:50.282Z,2.20
2023-03-24T11:02:23.894Z,2.30
2023-03-24T11:05:15.076Z,2.20
2023-03-24T11:07:47.430Z,2.00
2023-03-24T11:10:24.872Z,1.70
2023-03-24T11:12:55.162Z,1.90
2023-03-24T11:15:34.172Z,1.90
2023-03-24T11:18:16.131Z,2.30
2023-03-24T11:20:50.381Z,2.60
2023-03-24T11:23:17.485Z,1.70
2023-03-24T11:26:01.264Z,2.30
2023-03-24T11:28:34.945Z,1.90
2023-03-24T11:31:09.399Z,2.20
2023-03-24T11:33:49.679Z,2.30
2023-03-24T11:36:37.489Z,2.00
2023-03-24T11:39:23.100Z,2.20
2023-03-24T11:42:10.501Z,2.30
2023-03-24T11:44:37.674Z,2.40
2023-03-24T11:47:29.275Z,2.20
2023-03-24T11:50:11.803Z,2.60
2023-03-24T11:52:52.192Z,2.20
2023-03-24T11:55:49.119Z,2.50
2023-03-24T11:58:36.024Z,1.90
2023-03-24T12:01:12.192Z,2.50
2023-03-24T12:04:02.720Z,2.30
2023-03-24T12:07:14.257Z,2.30
2023-03-24T12:10:23.122Z,2.70
2023-03-24T12:13:29.922Z,2.20
2023-03-24T12:16:08.830Z,2.90
2023-03-24T12:18:51.365Z,2.60
2023-03-24T12:21:36.315Z,2.70
2023-03-24T12:24:37.905Z,3.70
2023-03-24T12:27:05.336Z,2.50
2023-03-24T12:30:20.434Z,2.30
2023-03-24T12:33:01.654Z,2.50
2023-03-24T12:35:40.902Z,2.90
2023-03-24T12:38:16.405Z,2.60
2023-03-24T12:41:12.367Z,2.50
2023-03-24T12:44:06.137Z,2.70
2023-03-24T12:47:19.866Z,3.70
2023-03-24T12:50:05.325Z,3.40
2023-03-24T12:52:58.098Z,3.60
2023-03-24T12:55:38.969Z,3.20
2023-03-24T12:58:08.828Z,3.30
2023-03-24T13:00:56.693Z,3.80
2023-03-24T13:04:00.686Z,5.40
2023-03-24T13:06:36.563Z,4.90
2023-03-24T13:09:58.935Z,5.40
2023-03-24T13:12:36.098Z,3.70
2023-03-24T13:15:13.571Z,3.70
2023-03-24T13:18:12.043Z,4.10
2023-03-24T13:20:56.721Z,5.40
2023-03-24T13:23:40.924Z,4.20
2023-03-24T13:26:27.862Z,11.60
2023-03-24T13:29:06.888Z,7.80
2023-03-24T13:32:09.428Z,5.30
2023-03-24T13:34:49.158Z,4.80
2023-03-24T13:37:33.084Z,3.90
2023-03-24T13:40:22.750Z,5.10
2023-03-24T13:43:00.821Z,4.30
2023-03-24T13:45:42.006Z,3.60
2023-03-24T13:48:11.659Z,4.90
2023-03-24T13:51:21.749Z,4.20
2023-03-24T13:54:16.916Z,3.40
2023-03-24T13:56:54.455Z,2.90
2023-03-24T14:00:08.623Z,3.00
2023-03-24T14:02:58.492Z,4.10
2023-03-24T14:05:35.273Z,6.50
2023-03-24T14:08:05.647Z,5.70
2023-03-24T14:10:52.476Z,3.50
2023-03-24T14:15:59.093Z,4.80
2023-03-24T14:20:59.273Z,3.60
2023-03-24T14:23:53.052Z,4.10
2023-03-24T14:26:37.202Z,3.30
2023-03-24T14:29:52.205Z,5.40
2023-03-24T14:32:25.928Z,5.40
2023-03-24T14:35:02.306Z,4.00
2023-03-24T14:37:37.748Z,3.70
2023-03-24T14:40:36.370Z,4.10
2023-03-24T14:43:44.519Z,4.00
2023-03-24T14:46:22.914Z,4.30
2023-03-24T14:49:19.625Z,5.60
2023-03-24T14:52:09.659Z,4.90
2023-03-24T14:54:55.876Z,5.60
2023-03-24T14:57:28.120Z,5.70
2023-03-24T15:00:49.302Z,5.70
2023-03-24T15:03:47.534Z,5.10
2023-03-24T15:06:26.782Z,5.40
2023-03-24T15:09:00.173Z,3.90
2023-03-24T15:11:41.519Z,2.50
2023-03-24T15:14:28.596Z,3.90
2023-03-24T15:17:28.010Z,3.60
2023-03-24T15:19:57.355Z,3.30
2023-03-24T15:22:30.401Z,4.40
2023-03-24T15:25:01.098Z,4.60
2023-03-24T15:27:39.701Z,6.70
2023-03-24T15:30:16.597Z,6.30
2023-03-24T15:32:51.811Z,6.40
2023-03-24T15:35:22.893Z,6.50
2023-03-24T15:37:56.483Z,5.10
2023-03-24T15:40:26.677Z,4.90
2023-03-24T15:43:02.804Z,3.30
2023-03-24T15:45:45.452Z,3.30
2023-03-24T15:48:26.967Z,2.70
2023-03-24T15:51:14.436Z,2.40
2023-03-24T15:54:02.377Z,2.40
2023-03-24T15:56:34.454Z,2.50
2023-03-24T15:59:17.890Z,2.50
2023-03-24T16:01:51.492Z,3.30
2023-03-24T16:04:24.533Z,3.10
2023-03-24T16:06:59.503Z,3.20
2023-03-24T16:09:43.563Z,3.60
2023-03-24T16:12:14.831Z,4.10
2023-03-24T16:14:43.747Z,3.50
2023-03-24T16:17:17.190Z,3.00
2023-03-24T16:19:46.126Z,2.30
2023-03-24T16:22:17.586Z,2.50
2023-03-24T16:24:48.369Z,2.10
2023-03-24T16:27:18.063Z,2.50
2023-03-24T16:29:47.139Z,2.20
2023-03-24T16:32:16.752Z,2.20
2023-03-24T16:34:48.342Z,2.30
2023-03-24T16:37:19.546Z,2.40
2023-03-24T16:39:52.629Z,3.00
2023-03-24T16:42:20.671Z,2.90
2023-03-24T16:44:51.004Z,2.20
2023-03-24T16:47:22.469Z,2.60
2023-03-24T16:49:49.938Z,2.60
2023-03-24T16:52:18.373Z,2.40
2023-03-24T16:54:48.080Z,3.30
2023-03-24T16:57:22.662Z,4.00
2023-03-24T16:59:51.313Z,7.40
2023-03-24T17:03:01.788Z,10.80
2023-03-24T17:05:42.928Z,6.40
2023-03-24T17:08:10.524Z,5.60
2023-03-24T17:10:40.877Z,6.50
2023-03-24T17:13:17.057Z,5.90
2023-03-24T17:15:44.670Z,7.20
2023-03-24T17:18:12.254Z,6.20
2023-03-24T17:20:39.794Z,3.40
2023-03-24T17:23:11.114Z,1.80
2023-03-24T17:29:02.073Z,1.60
2023-03-24T17:31:31.797Z,1.50
2023-03-24T17:34:08.542Z,2.10
2023-03-24T17:36:40.283Z,2.00
2023-03-24T17:39:16.050Z,2.00
2023-03-24T17:41:44.910Z,2.20
2023-03-24T17:44:13.718Z,2.10
2023-03-24T17:46:41.847Z,2.30
2023-03-24T17:49:10.557Z,2.60
2023-03-24T17:51:39.646Z,2.40
2023-03-24T17:54:09.872Z,2.20
2023-03-24T17:56:38.186Z,1.60
2023-03-24T17:59:07.209Z,2.20
2023-03-24T18:01:38.970Z,1.30
2023-03-24T18:04:08.109Z,1.60
2023-03-24T18:06:37.963Z,1.50
2023-03-24T18:09:07.188Z,1.70
2023-03-24T18:11:38.491Z,1.70
2023-03-24T18:14:09.424Z,1.90
2023-03-24T18:16:39.158Z,1.90
2023-03-24T18:19:07.627Z,1.80
2023-03-24T18:21:36.333Z,1.40
2023-03-24T18:24:06.654Z,1.40
2023-03-24T18:26:34.694Z,1.30
2023-03-24T18:29:03.357Z,1.60
2023-03-24T18:31:32.441Z,1.10
2023-03-24T18:34:04.375Z,1.60
2023-03-24T18:36:32.671Z,1.50
2023-03-24T18:39:06.557Z,2.00
2023-03-24T18:41:49.157Z,2.40
2023-03-24T18:44:19.584Z,2.50
2023-03-24T18:46:50.447Z,2.20
2023-03-24T18:49:18.586Z,2.50
2023-03-24T18:51:46.541Z,2.10
2023-03-24T18:54:14.057Z,1.80
2023-03-24T18:56:41.917Z,2.00
2023-03-24T18:59:11.153Z,2.30
2023-03-24T19:01:38.453Z,2.50
2023-03-24T19:04:05.893Z,4.10
2023-03-24T19:06:33.857Z,6.20
2023-03-24T19:09:01.306Z,6.80
2023-03-24T19:11:28.585Z,6.40
2023-03-24T19:13:56.860Z,5.80
2023-03-24T19:16:24.566Z,5.50
2023-03-24T19:18:52.557Z,5.50
2023-03-24T19:21:24.031Z,4.30
2023-03-24T19:23:52.619Z,5.60
2023-03-24T19:26:20.711Z,4.60
2023-03-24T19:28:48.742Z,5.00
2023-03-24T19:31:18.603Z,5.10
2023-03-24T19:33:47.346Z,4.60
2023-03-24T19:36:15.026Z,4.70
2023-03-24T19:38:42.595Z,4.70
2023-03-24T19:41:13.357Z,4.30
2023-03-24T19:43:40.908Z,5.90
2023-03-24T19:46:08.554Z,4.70
2023-03-24T19:48:37.303Z,6.30
2023-03-24T19:51:05.163Z,5.40
2023-03-24T19:53:32.582Z,6.30
2023-03-24T19:56:00.669Z,6.60
2023-03-24T19:58:28.244Z,5.80
2023-03-24T20:00:55.439Z,5.50
2023-03-24T20:03:23.424Z,6.00
2023-03-24T20:05:51.020Z,6.80
2023-03-24T20:08:18.673Z,6.70
2023-03-24T20:10:46.645Z,6.90
2023-03-24T20:13:14.172Z,6.10
2023-03-24T20:15:41.528Z,6.20
2023-03-24T20:18:10.314Z,6.40
2023-03-24T20:20:37.805Z,5.80
2023-03-24T20:23:05.032Z,7.60
2023-03-24T20:25:32.222Z,7.60
2023-03-24T20:27:59.534Z,7.50
2023-03-24T20:30:28.284Z,8.50
2023-03-24T20:32:57.265Z,10.00
2023-03-24T20:35:25.734Z,10.20
2023-03-24T20:37:52.845Z,10.60
2023-03-24T20:40:21.269Z,12.40
2023-03-24T20:42:48.859Z,14.40
2023-03-24T20:45:16.077Z,15.00
2023-03-24T20:47:43.437Z,13.60
2023-03-24T20:50:11.244Z,11.70
2023-03-24T20:52:38.456Z,11.80
2023-03-24T20:55:06.323Z,11.90
2023-03-24T20:57:34.239Z,10.20
2023-03-24T21:00:01.661Z,9.40
2023-03-24T21:02:31.250Z,8.40
2023-03-24T21:04:58.449Z,5.50
2023-03-24T21:07:26.430Z,5.30
2023-03-24T21:09:53.581Z,4.70
2023-03-24T21:12:21.413Z,5.60
2023-03-24T21:14:48.724Z,5.50
2023-03-24T21:17:18.821Z,5.30
2023-03-24T21:19:46.462Z,4.60
2023-03-24T21:22:14.785Z,4.60
2023-03-24T21:24:42.054Z,4.80
2023-03-24T21:27:09.497Z,4.00
2023-03-24T21:29:36.683Z,4.10
2023-03-24T21:32:04.150Z,4.50
2023-03-24T21:34:31.828Z,7.50
2023-03-24T21:37:00.901Z,5.20
2023-03-24T21:39:28.586Z,5.20
2023-03-24T21:41:55.843Z,4.90
2023-03-24T21:44:23.201Z,3.90
2023-03-24T21:46:50.409Z,4.30
2023-03-24T21:49:18.615Z,4.20
2023-03-24T21:51:46.194Z,4.30
2023-03-24T21:54:14.329Z,3.70
2023-03-24T21:56:41.954Z,4.20
2023-03-24T21:59:10.653Z,4.30
2023-03-24T22:01:37.905Z,4.00
2023-03-24T22:04:08.080Z,3.10
2023-03-24T22:06:37.035Z,3.40
2023-03-24T22:09:09.855Z,3.10
2023-03-24T22:11:41.996Z,3.20
2023-03-24T22:14:09.294Z,3.20
2023-03-24T22:16:36.703Z,2.80
2023-03-24T22:19:03.943Z,3.00
2023-03-24T22:21:31.640Z,3.30
2023-03-24T22:23:58.947Z,3.50
2023-03-24T22:26:26.238Z,2.70
2023-03-24T22:28:55.592Z,2.60
2023-03-24T22:31:23.799Z,2.40
2023-03-24T22:33:51.514Z,2.30
2023-03-24T22:36:18.740Z,2.40
2023-03-24T22:38:46.121Z,2.80
2023-03-24T22:41:13.502Z,2.30
2023-03-24T22:43:41.298Z,1.90
2023-03-24T22:46:10.409Z,2.70
2023-03-24T22:48:38.890Z,2.80
2023-03-24T22:51:06.748Z,2.50
2023-03-24T22:53:35.532Z,1.90
2023-03-24T22:56:03.064Z,2.30
2023-03-24T22:58:30.229Z,2.10
